This is the latest recevied weather packets stored in our database for station/object WB8ZGM-13. If no packets are shown the sender has not sent any weather packets the latest 10 day(s).
| Time | Temp. | Humidity | Pressure | Rain* | Wind** | Luminosity | Snow |
|---|---|---|---|---|---|---|---|
| 1777515388 | 15° C | 99% | 996.4 hPa | 0 mm | - | - | - |
| 1777514458 | 15° C | 99% | 995.9 hPa | 0 mm | - | - | - |
| 1777513528 | 15.56° C | 96% | 995.8 hPa | 0 mm | - | - | - |
| 1777512628 | 16.11° C | 93% | 995.7 hPa | 0 mm | - | - | - |
| 1777511728 | 16.11° C | 92% | 995.3 hPa | 0 mm | - | - | - |
| 1777510798 | 16.67° C | 90% | 995 hPa | 0 mm | - | - | - |
| 1777509897 | 17.78° C | 85% | 994.9 hPa | 0 mm | - | - | - |
| 1777508997 | 18.33° C | 81% | 994.9 hPa | 0 mm | - | - | - |
| 1777508067 | 19.44° C | 77% | 994.8 hPa | 0 mm | - | - | - |
| 1777507167 | 20° C | 75% | 994.6 hPa | 0 mm | - | - | - |
| 1777506237 | 21.11° C | 73% | 994.9 hPa | 0 mm | - | - | - |
| 1777505356 | 22.22° C | 70% | 994.8 hPa | 0 mm | - | - | - |
| 1777504407 | 22.22° C | 69% | 994.8 hPa | 0 mm | - | - | - |
| 1777503507 | 22.22° C | 71% | 994.7 hPa | 0 mm | - | - | - |
| 1777502607 | 21.67° C | 74% | 994.6 hPa | 0 mm | - | - | - |
| 1777501707 | 20.56° C | 79% | 995 hPa | 0 mm | - | - | - |
| 1777500807 | 20° C | 80% | 994.8 hPa | 0 mm | - | - | - |
| 1777499877 | 20° C | 84% | 994.8 hPa | 0 mm | - | - | - |
| 1777498977 | 20.56° C | 81% | 994.7 hPa | 0 mm | - | - | - |
| 1777498077 | 21.11° C | 81% | 994.7 hPa | 0 mm | - | - | - |
| 1777497147 | 21.11° C | 81% | 994.6 hPa | 0 mm | - | - | - |
| 1777496247 | 21.11° C | 82% | 994.6 hPa | 0 mm | - | - | - |
| 1777495346 | 21.67° C | 80% | 994.8 hPa | 0 mm | - | - | - |
| 1777494416 | 22.22° C | 78% | 994.9 hPa | 0 mm | - | - | - |
| 1777493516 | 23.33° C | 78% | 995 hPa | 0 mm | - | - | - |
* Rain latest hour (hover to see other rain measurements)
** Current wind speed in m/s (hover to see current wind gust speed)